Terminal Aerodrome Forecast
Issued by NWS Burlington, VT

Home | Current Version | Previous Version | Text Only | Print | Product List | Glossary On
Versions: 1 2 3 4 5 6 7 8 9 10 11 12 13 14 15 16
112
FTUS41 KBTV 231124
TAFBTV
TAF
KBTV 231124Z 2312/2412 VRB03KT P6SM VCSH SCT050 BKN100
     FM231500 31007KT P6SM VCSH SCT070 BKN090
     FM231700 30007KT 4SM SHRA BR BKN050 BKN090
     FM232300 32005KT P6SM VCSH SCT050 BKN120
     FM240200 VRB03KT P6SM BKN120=

USA.gov is the U.S. government's official web portal to all federal, state and local government web resources and services.